sensor_id;sensor_type;location;lat;lon;timestamp;temperature;humidity
22526;DHT22;11429;50.842;4.386;2023-12-14T00:01:45;9.50;99.90
22526;DHT22;11429;50.842;4.386;2023-12-14T00:04:12;9.50;99.90
22526;DHT22;11429;50.842;4.386;2023-12-14T00:06:37;9.50;99.90
22526;DHT22;11429;50.842;4.386;2023-12-14T00:09:03;9.60;99.90
22526;DHT22;11429;50.842;4.386;2023-12-14T00:11:29;9.60;99.90
22526;DHT22;11429;50.842;4.386;2023-12-14T00:13:55;9.50;99.90
22526;DHT22;11429;50.842;4.386;2023-12-14T00:16:21;9.40;99.90
22526;DHT22;11429;50.842;4.386;2023-12-14T00:18:47;9.50;99.90
22526;DHT22;11429;50.842;4.386;2023-12-14T00:21:12;9.60;99.90
22526;DHT22;11429;50.842;4.386;2023-12-14T00:23:38;9.80;99.90
22526;DHT22;11429;50.842;4.386;2023-12-14T00:26:04;9.80;99.90
22526;DHT22;11429;50.842;4.386;2023-12-14T00:28:29;9.50;99.90
22526;DHT22;11429;50.842;4.386;2023-12-14T00:30:55;9.30;99.90
22526;DHT22;11429;50.842;4.386;2023-12-14T00:33:21;9.10;99.90
22526;DHT22;11429;50.842;4.386;2023-12-14T00:35:46;9.00;99.90
22526;DHT22;11429;50.842;4.386;2023-12-14T00:38:12;9.10;99.90
22526;DHT22;11429;50.842;4.386;2023-12-14T00:40:38;9.20;99.90
22526;DHT22;11429;50.842;4.386;2023-12-14T00:43:04;9.10;99.90
22526;DHT22;11429;50.842;4.386;2023-12-14T00:45:29;9.10;99.90
22526;DHT22;11429;50.842;4.386;2023-12-14T00:47:55;9.00;99.90
22526;DHT22;11429;50.842;4.386;2023-12-14T00:50:21;9.00;99.90
22526;DHT22;11429;50.842;4.386;2023-12-14T00:52:46;9.00;99.90
22526;DHT22;11429;50.842;4.386;2023-12-14T00:55:12;9.00;99.90
22526;DHT22;11429;50.842;4.386;2023-12-14T00:57:38;9.00;99.90
22526;DHT22;11429;50.842;4.386;2023-12-14T01:00:04;9.10;99.90
22526;DHT22;11429;50.842;4.386;2023-12-14T01:02:30;9.00;99.90
22526;DHT22;11429;50.842;4.386;2023-12-14T01:04:55;9.10;99.90
22526;DHT22;11429;50.842;4.386;2023-12-14T01:07:21;9.10;99.90
22526;DHT22;11429;50.842;4.386;2023-12-14T01:09:47;9.20;99.90
22526;DHT22;11429;50.842;4.386;2023-12-14T01:12:12;9.40;99.90
22526;DHT22;11429;50.842;4.386;2023-12-14T01:14:38;9.50;99.90
22526;DHT22;11429;50.842;4.386;2023-12-14T01:17:04;9.60;99.90
22526;DHT22;11429;50.842;4.386;2023-12-14T01:19:29;9.70;99.90
22526;DHT22;11429;50.842;4.386;2023-12-14T01:21:55;9.70;99.90
22526;DHT22;11429;50.842;4.386;2023-12-14T01:24:21;9.40;99.90
22526;DHT22;11429;50.842;4.386;2023-12-14T01:26:46;9.20;99.90
22526;DHT22;11429;50.842;4.386;2023-12-14T01:29:12;9.10;99.90
22526;DHT22;11429;50.842;4.386;2023-12-14T01:31:38;9.10;99.90
22526;DHT22;11429;50.842;4.386;2023-12-14T01:34:03;9.10;99.90
22526;DHT22;11429;50.842;4.386;2023-12-14T01:36:29;9.10;99.90
22526;DHT22;11429;50.842;4.386;2023-12-14T01:38:55;9.10;99.90
22526;DHT22;11429;50.842;4.386;2023-12-14T01:41:20;9.10;99.90
22526;DHT22;11429;50.842;4.386;2023-12-14T01:43:46;9.10;99.90
22526;DHT22;11429;50.842;4.386;2023-12-14T01:46:12;9.10;99.90
22526;DHT22;11429;50.842;4.386;2023-12-14T01:48:39;9.10;99.90
22526;DHT22;11429;50.842;4.386;2023-12-14T01:51:05;9.40;99.90
22526;DHT22;11429;50.842;4.386;2023-12-14T01:53:30;9.60;99.90
22526;DHT22;11429;50.842;4.386;2023-12-14T01:55:56;9.70;99.90
22526;DHT22;11429;50.842;4.386;2023-12-14T01:58:22;9.60;99.90
22526;DHT22;11429;50.842;4.386;2023-12-14T02:03:19;9.70;99.90
22526;DHT22;11429;50.842;4.386;2023-12-14T02:05:44;9.60;99.90
22526;DHT22;11429;50.842;4.386;2023-12-14T02:08:10;9.30;99.90
22526;DHT22;11429;50.842;4.386;2023-12-14T02:10:36;9.20;99.90
22526;DHT22;11429;50.842;4.386;2023-12-14T02:13:02;9.10;99.90
22526;DHT22;11429;50.842;4.386;2023-12-14T02:15:28;9.00;99.90
22526;DHT22;11429;50.842;4.386;2023-12-14T02:17:54;8.90;99.90
22526;DHT22;11429;50.842;4.386;2023-12-14T02:20:20;9.00;99.90
22526;DHT22;11429;50.842;4.386;2023-12-14T02:22:55;9.10;99.90
22526;DHT22;11429;50.842;4.386;2023-12-14T02:25:22;9.10;99.90
22526;DHT22;11429;50.842;4.386;2023-12-14T02:27:49;9.40;99.90
22526;DHT22;11429;50.842;4.386;2023-12-14T02:30:16;9.40;99.90
22526;DHT22;11429;50.842;4.386;2023-12-14T02:32:42;9.50;99.90
22526;DHT22;11429;50.842;4.386;2023-12-14T02:35:07;9.60;99.90
22526;DHT22;11429;50.842;4.386;2023-12-14T02:37:34;10.00;99.90
22526;DHT22;11429;50.842;4.386;2023-12-14T02:40:03;10.20;99.90
22526;DHT22;11429;50.842;4.386;2023-12-14T02:42:30;10.20;99.90
22526;DHT22;11429;50.842;4.386;2023-12-14T02:44:56;10.30;99.90
22526;DHT22;11429;50.842;4.386;2023-12-14T02:47:22;10.40;99.90
22526;DHT22;11429;50.842;4.386;2023-12-14T02:49:47;10.20;99.90
22526;DHT22;11429;50.842;4.386;2023-12-14T02:52:13;10.00;99.90
22526;DHT22;11429;50.842;4.386;2023-12-14T02:54:39;10.20;99.90
22526;DHT22;11429;50.842;4.386;2023-12-14T02:57:05;10.10;99.90
22526;DHT22;11429;50.842;4.386;2023-12-14T02:59:31;10.20;99.90
22526;DHT22;11429;50.842;4.386;2023-12-14T03:01:57;10.20;99.90
22526;DHT22;11429;50.842;4.386;2023-12-14T03:04:22;10.10;99.90
22526;DHT22;11429;50.842;4.386;2023-12-14T03:06:48;10.20;99.90
22526;DHT22;11429;50.842;4.386;2023-12-14T03:09:14;10.00;99.90
22526;DHT22;11429;50.842;4.386;2023-12-14T03:11:40;10.00;99.90
22526;DHT22;11429;50.842;4.386;2023-12-14T03:14:05;10.10;99.90
22526;DHT22;11429;50.842;4.386;2023-12-14T03:16:31;10.00;99.90
22526;DHT22;11429;50.842;4.386;2023-12-14T03:18:57;9.70;99.90
22526;DHT22;11429;50.842;4.386;2023-12-14T03:21:23;9.50;99.90
22526;DHT22;11429;50.842;4.386;2023-12-14T03:23:49;9.10;99.90
22526;DHT22;11429;50.842;4.386;2023-12-14T03:26:15;9.00;99.90
22526;DHT22;11429;50.842;4.386;2023-12-14T03:28:41;8.90;99.90
22526;DHT22;11429;50.842;4.386;2023-12-14T03:31:09;8.80;99.90
22526;DHT22;11429;50.842;4.386;2023-12-14T03:33:35;8.90;99.90
22526;DHT22;11429;50.842;4.386;2023-12-14T03:36:02;9.00;99.90
22526;DHT22;11429;50.842;4.386;2023-12-14T03:38:28;8.80;99.90
22526;DHT22;11429;50.842;4.386;2023-12-14T03:40:53;8.60;99.90
22526;DHT22;11429;50.842;4.386;2023-12-14T03:43:19;8.50;99.90
22526;DHT22;11429;50.842;4.386;2023-12-14T03:45:45;8.40;99.90
22526;DHT22;11429;50.842;4.386;2023-12-14T03:48:11;8.20;99.90
22526;DHT22;11429;50.842;4.386;2023-12-14T03:50:36;8.10;99.90
22526;DHT22;11429;50.842;4.386;2023-12-14T03:53:02;8.10;99.90
22526;DHT22;11429;50.842;4.386;2023-12-14T03:55:28;8.00;99.90
22526;DHT22;11429;50.842;4.386;2023-12-14T03:57:53;8.00;99.90
22526;DHT22;11429;50.842;4.386;2023-12-14T04:00:19;7.80;99.90
22526;DHT22;11429;50.842;4.386;2023-12-14T04:02:45;7.80;99.90
22526;DHT22;11429;50.842;4.386;2023-12-14T04:05:11;7.80;99.90
22526;DHT22;11429;50.842;4.386;2023-12-14T04:07:37;7.80;99.90
22526;DHT22;11429;50.842;4.386;2023-12-14T04:10:09;7.80;99.90
22526;DHT22;11429;50.842;4.386;2023-12-14T04:12:36;7.80;99.90
22526;DHT22;11429;50.842;4.386;2023-12-14T04:15:03;7.70;99.90
22526;DHT22;11429;50.842;4.386;2023-12-14T04:17:28;7.70;99.90
22526;DHT22;11429;50.842;4.386;2023-12-14T04:19:55;7.70;99.90
22526;DHT22;11429;50.842;4.386;2023-12-14T04:22:21;7.80;99.90
22526;DHT22;11429;50.842;4.386;2023-12-14T04:24:47;7.80;99.90
22526;DHT22;11429;50.842;4.386;2023-12-14T04:27:12;7.70;99.90
22526;DHT22;11429;50.842;4.386;2023-12-14T04:29:38;7.80;99.90
22526;DHT22;11429;50.842;4.386;2023-12-14T04:32:04;7.70;99.90
22526;DHT22;11429;50.842;4.386;2023-12-14T04:34:30;7.70;99.90
22526;DHT22;11429;50.842;4.386;2023-12-14T04:36:56;7.70;99.90
22526;DHT22;11429;50.842;4.386;2023-12-14T04:39:24;7.60;99.90
22526;DHT22;11429;50.842;4.386;2023-12-14T04:41:53;7.50;99.90
22526;DHT22;11429;50.842;4.386;2023-12-14T04:44:22;7.40;99.90
22526;DHT22;11429;50.842;4.386;2023-12-14T04:46:48;7.40;99.90
22526;DHT22;11429;50.842;4.386;2023-12-14T04:49:14;7.40;99.90
22526;DHT22;11429;50.842;4.386;2023-12-14T04:51:40;7.40;99.90
22526;DHT22;11429;50.842;4.386;2023-12-14T04:54:05;7.40;99.90
22526;DHT22;11429;50.842;4.386;2023-12-14T04:56:31;7.40;99.90
22526;DHT22;11429;50.842;4.386;2023-12-14T04:58:57;7.40;99.90
22526;DHT22;11429;50.842;4.386;2023-12-14T05:01:24;7.30;99.90
22526;DHT22;11429;50.842;4.386;2023-12-14T05:03:52;7.30;99.90
22526;DHT22;11429;50.842;4.386;2023-12-14T05:06:18;7.20;99.90
22526;DHT22;11429;50.842;4.386;2023-12-14T05:08:44;7.30;99.90
22526;DHT22;11429;50.842;4.386;2023-12-14T05:11:09;7.30;99.90
22526;DHT22;11429;50.842;4.386;2023-12-14T05:13:35;7.20;99.90
22526;DHT22;11429;50.842;4.386;2023-12-14T05:16:01;7.20;99.90
22526;DHT22;11429;50.842;4.386;2023-12-14T05:18:27;7.30;99.90
22526;DHT22;11429;50.842;4.386;2023-12-14T05:20:53;7.20;99.90
22526;DHT22;11429;50.842;4.386;2023-12-14T05:23:19;7.20;99.90
22526;DHT22;11429;50.842;4.386;2023-12-14T05:25:45;7.20;99.90
22526;DHT22;11429;50.842;4.386;2023-12-14T05:28:10;7.20;99.90
22526;DHT22;11429;50.842;4.386;2023-12-14T05:30:36;7.20;99.90
22526;DHT22;11429;50.842;4.386;2023-12-14T05:33:02;7.20;99.90
22526;DHT22;11429;50.842;4.386;2023-12-14T05:35:28;7.30;99.90
22526;DHT22;11429;50.842;4.386;2023-12-14T05:37:54;7.20;99.90
22526;DHT22;11429;50.842;4.386;2023-12-14T05:40:19;7.10;99.90
22526;DHT22;11429;50.842;4.386;2023-12-14T05:42:45;7.10;99.90
22526;DHT22;11429;50.842;4.386;2023-12-14T05:45:11;7.10;99.90
22526;DHT22;11429;50.842;4.386;2023-12-14T05:47:37;7.10;99.90
22526;DHT22;11429;50.842;4.386;2023-12-14T05:50:04;7.10;99.90
22526;DHT22;11429;50.842;4.386;2023-12-14T05:52:30;7.10;99.90
22526;DHT22;11429;50.842;4.386;2023-12-14T05:54:56;7.30;99.90
22526;DHT22;11429;50.842;4.386;2023-12-14T05:57:22;7.20;99.90
22526;DHT22;11429;50.842;4.386;2023-12-14T05:59:49;7.20;99.90
22526;DHT22;11429;50.842;4.386;2023-12-14T06:02:15;7.20;99.90
22526;DHT22;11429;50.842;4.386;2023-12-14T06:04:41;7.20;99.90
22526;DHT22;11429;50.842;4.386;2023-12-14T06:07:06;7.20;99.90
22526;DHT22;11429;50.842;4.386;2023-12-14T06:09:32;7.30;99.90
22526;DHT22;11429;50.842;4.386;2023-12-14T06:12:02;7.10;99.90
22526;DHT22;11429;50.842;4.386;2023-12-14T06:14:28;7.30;99.90
22526;DHT22;11429;50.842;4.386;2023-12-14T06:16:54;7.40;99.90
22526;DHT22;11429;50.842;4.386;2023-12-14T06:19:20;7.40;99.90
22526;DHT22;11429;50.842;4.386;2023-12-14T06:21:46;7.30;99.90
22526;DHT22;11429;50.842;4.386;2023-12-14T06:24:12;7.30;99.90
22526;DHT22;11429;50.842;4.386;2023-12-14T06:26:41;7.30;99.90
22526;DHT22;11429;50.842;4.386;2023-12-14T06:29:09;7.30;99.90
22526;DHT22;11429;50.842;4.386;2023-12-14T06:31:35;7.20;99.90
22526;DHT22;11429;50.842;4.386;2023-12-14T06:34:00;7.20;99.90
22526;DHT22;11429;50.842;4.386;2023-12-14T06:36:29;7.20;99.90
22526;DHT22;11429;50.842;4.386;2023-12-14T06:38:56;7.40;99.90
22526;DHT22;11429;50.842;4.386;2023-12-14T06:41:22;7.50;99.90
22526;DHT22;11429;50.842;4.386;2023-12-14T06:43:49;7.60;99.90
22526;DHT22;11429;50.842;4.386;2023-12-14T06:46:15;7.80;99.90
22526;DHT22;11429;50.842;4.386;2023-12-14T06:48:41;7.40;99.90
22526;DHT22;11429;50.842;4.386;2023-12-14T06:51:07;7.40;99.90
22526;DHT22;11429;50.842;4.386;2023-12-14T06:53:38;7.50;99.90
22526;DHT22;11429;50.842;4.386;2023-12-14T06:56:05;7.70;99.90
22526;DHT22;11429;50.842;4.386;2023-12-14T06:58:35;7.50;99.90
22526;DHT22;11429;50.842;4.386;2023-12-14T07:01:01;7.50;99.90
22526;DHT22;11429;50.842;4.386;2023-12-14T07:03:26;7.70;99.90
22526;DHT22;11429;50.842;4.386;2023-12-14T07:05:52;7.50;99.90
22526;DHT22;11429;50.842;4.386;2023-12-14T07:08:18;7.60;99.90
22526;DHT22;11429;50.842;4.386;2023-12-14T07:10:43;7.70;99.90
22526;DHT22;11429;50.842;4.386;2023-12-14T07:13:09;7.80;99.90
22526;DHT22;11429;50.842;4.386;2023-12-14T07:15:35;7.80;99.90
22526;DHT22;11429;50.842;4.386;2023-12-14T07:18:00;7.70;99.90
22526;DHT22;11429;50.842;4.386;2023-12-14T07:20:27;7.60;99.90
22526;DHT22;11429;50.842;4.386;2023-12-14T07:22:55;7.50;99.90
22526;DHT22;11429;50.842;4.386;2023-12-14T07:25:21;7.60;99.90
22526;DHT22;11429;50.842;4.386;2023-12-14T07:27:47;7.80;99.90
22526;DHT22;11429;50.842;4.386;2023-12-14T07:30:13;7.90;99.90
22526;DHT22;11429;50.842;4.386;2023-12-14T07:32:39;7.70;99.90
22526;DHT22;11429;50.842;4.386;2023-12-14T07:35:05;7.50;99.90
22526;DHT22;11429;50.842;4.386;2023-12-14T07:37:31;7.30;99.90
22526;DHT22;11429;50.842;4.386;2023-12-14T07:39:57;7.20;99.90
22526;DHT22;11429;50.842;4.386;2023-12-14T07:42:26;7.10;99.90
22526;DHT22;11429;50.842;4.386;2023-12-14T07:44:51;7.10;99.90
22526;DHT22;11429;50.842;4.386;2023-12-14T07:47:17;7.20;99.90
22526;DHT22;11429;50.842;4.386;2023-12-14T07:49:44;7.40;99.90
22526;DHT22;11429;50.842;4.386;2023-12-14T07:52:09;7.50;99.90
22526;DHT22;11429;50.842;4.386;2023-12-14T07:54:35;7.60;99.90
22526;DHT22;11429;50.842;4.386;2023-12-14T07:57:02;7.70;99.90
22526;DHT22;11429;50.842;4.386;2023-12-14T07:59:27;7.80;99.90
22526;DHT22;11429;50.842;4.386;2023-12-14T08:01:55;7.90;99.90
22526;DHT22;11429;50.842;4.386;2023-12-14T08:04:21;7.90;99.90
22526;DHT22;11429;50.842;4.386;2023-12-14T08:06:46;7.90;99.90
22526;DHT22;11429;50.842;4.386;2023-12-14T08:09:12;7.90;99.90
22526;DHT22;11429;50.842;4.386;2023-12-14T08:11:38;7.80;99.90
22526;DHT22;11429;50.842;4.386;2023-12-14T08:14:03;7.90;99.90
22526;DHT22;11429;50.842;4.386;2023-12-14T08:16:29;8.00;99.90
22526;DHT22;11429;50.842;4.386;2023-12-14T08:18:55;8.00;99.90
22526;DHT22;11429;50.842;4.386;2023-12-14T08:21:21;7.90;99.90
22526;DHT22;11429;50.842;4.386;2023-12-14T08:23:46;7.70;99.90
22526;DHT22;11429;50.842;4.386;2023-12-14T08:26:12;7.80;99.90
22526;DHT22;11429;50.842;4.386;2023-12-14T08:28:42;8.00;99.90
22526;DHT22;11429;50.842;4.386;2023-12-14T08:31:08;8.20;99.90
22526;DHT22;11429;50.842;4.386;2023-12-14T08:33:36;8.20;99.90
22526;DHT22;11429;50.842;4.386;2023-12-14T08:36:02;8.30;99.90
22526;DHT22;11429;50.842;4.386;2023-12-14T08:38:28;8.40;99.90
22526;DHT22;11429;50.842;4.386;2023-12-14T08:40:54;8.00;99.90
22526;DHT22;11429;50.842;4.386;2023-12-14T08:43:19;8.00;99.90
22526;DHT22;11429;50.842;4.386;2023-12-14T08:45:45;8.10;99.90
22526;DHT22;11429;50.842;4.386;2023-12-14T08:48:11;8.20;99.90
22526;DHT22;11429;50.842;4.386;2023-12-14T08:50:37;8.10;99.90
22526;DHT22;11429;50.842;4.386;2023-12-14T08:53:03;8.00;99.90
22526;DHT22;11429;50.842;4.386;2023-12-14T08:55:31;8.00;99.90
22526;DHT22;11429;50.842;4.386;2023-12-14T08:57:57;8.00;99.90
22526;DHT22;11429;50.842;4.386;2023-12-14T09:00:23;7.90;99.90
22526;DHT22;11429;50.842;4.386;2023-12-14T09:02:49;7.80;99.90
22526;DHT22;11429;50.842;4.386;2023-12-14T09:05:15;8.00;99.90
22526;DHT22;11429;50.842;4.386;2023-12-14T09:07:42;8.30;99.90
22526;DHT22;11429;50.842;4.386;2023-12-14T09:10:08;8.50;99.90
22526;DHT22;11429;50.842;4.386;2023-12-14T09:12:34;8.70;99.90
22526;DHT22;11429;50.842;4.386;2023-12-14T09:15:01;8.70;99.90
22526;DHT22;11429;50.842;4.386;2023-12-14T09:17:27;8.70;99.90
22526;DHT22;11429;50.842;4.386;2023-12-14T09:19:59;9.00;99.90
22526;DHT22;11429;50.842;4.386;2023-12-14T09:22:25;8.70;99.90
22526;DHT22;11429;50.842;4.386;2023-12-14T09:24:50;8.80;99.90
22526;DHT22;11429;50.842;4.386;2023-12-14T09:27:17;8.60;99.90
22526;DHT22;11429;50.842;4.386;2023-12-14T09:29:42;8.40;99.90
22526;DHT22;11429;50.842;4.386;2023-12-14T09:32:08;8.50;99.90
22526;DHT22;11429;50.842;4.386;2023-12-14T09:34:34;8.30;99.90
22526;DHT22;11429;50.842;4.386;2023-12-14T09:37:00;8.20;99.90
22526;DHT22;11429;50.842;4.386;2023-12-14T09:39:26;8.30;99.90
22526;DHT22;11429;50.842;4.386;2023-12-14T09:42:03;8.20;99.90
22526;DHT22;11429;50.842;4.386;2023-12-14T09:44:31;8.40;99.90
22526;DHT22;11429;50.842;4.386;2023-12-14T09:46:59;8.20;99.90
22526;DHT22;11429;50.842;4.386;2023-12-14T09:49:29;8.40;99.90
22526;DHT22;11429;50.842;4.386;2023-12-14T09:52:00;8.70;99.90
22526;DHT22;11429;50.842;4.386;2023-12-14T09:54:27;8.30;99.90
22526;DHT22;11429;50.842;4.386;2023-12-14T09:56:53;8.40;99.90
22526;DHT22;11429;50.842;4.386;2023-12-14T09:59:19;8.20;99.90
22526;DHT22;11429;50.842;4.386;2023-12-14T10:01:45;8.10;99.90
22526;DHT22;11429;50.842;4.386;2023-12-14T10:04:16;8.20;99.90
22526;DHT22;11429;50.842;4.386;2023-12-14T10:06:44;8.10;99.90
22526;DHT22;11429;50.842;4.386;2023-12-14T10:09:11;8.10;99.90
22526;DHT22;11429;50.842;4.386;2023-12-14T10:11:40;8.20;99.90
22526;DHT22;11429;50.842;4.386;2023-12-14T10:14:22;8.30;99.90
22526;DHT22;11429;50.842;4.386;2023-12-14T10:16:49;8.40;99.90
22526;DHT22;11429;50.842;4.386;2023-12-14T10:19:17;8.50;99.90
22526;DHT22;11429;50.842;4.386;2023-12-14T10:29:32;8.90;99.90
22526;DHT22;11429;50.842;4.386;2023-12-14T10:31:59;9.00;99.90
22526;DHT22;11429;50.842;4.386;2023-12-14T10:34:25;9.00;99.90
22526;DHT22;11429;50.842;4.386;2023-12-14T10:36:52;9.00;99.90
22526;DHT22;11429;50.842;4.386;2023-12-14T10:39:18;9.20;99.90
22526;DHT22;11429;50.842;4.386;2023-12-14T10:41:47;9.10;99.90
22526;DHT22;11429;50.842;4.386;2023-12-14T10:44:16;8.90;99.90
22526;DHT22;11429;50.842;4.386;2023-12-14T10:46:43;8.60;99.90
22526;DHT22;11429;50.842;4.386;2023-12-14T10:49:11;8.80;99.90
22526;DHT22;11429;50.842;4.386;2023-12-14T11:17:31;9.90;99.90
22526;DHT22;11429;50.842;4.386;2023-12-14T11:20:26;10.30;99.90
22526;DHT22;11429;50.842;4.386;2023-12-14T11:22:55;10.20;99.90
22526;DHT22;11429;50.842;4.386;2023-12-14T11:25:23;10.10;99.90
22526;DHT22;11429;50.842;4.386;2023-12-14T11:27:49;9.80;99.90
22526;DHT22;11429;50.842;4.386;2023-12-14T11:30:16;9.80;99.90
22526;DHT22;11429;50.842;4.386;2023-12-14T11:32:42;9.70;99.90
22526;DHT22;11429;50.842;4.386;2023-12-14T11:35:08;9.60;99.90
22526;DHT22;11429;50.842;4.386;2023-12-14T11:37:36;9.50;99.90
22526;DHT22;11429;50.842;4.386;2023-12-14T11:40:02;9.50;99.90
22526;DHT22;11429;50.842;4.386;2023-12-14T11:42:30;9.50;99.90
22526;DHT22;11429;50.842;4.386;2023-12-14T11:44:57;9.40;99.90
22526;DHT22;11429;50.842;4.386;2023-12-14T11:47:23;9.40;99.90
22526;DHT22;11429;50.842;4.386;2023-12-14T11:49:48;9.40;99.90
22526;DHT22;11429;50.842;4.386;2023-12-14T11:52:14;9.50;99.90
22526;DHT22;11429;50.842;4.386;2023-12-14T11:54:40;9.50;99.90
22526;DHT22;11429;50.842;4.386;2023-12-14T11:57:05;9.40;99.90
22526;DHT22;11429;50.842;4.386;2023-12-14T11:59:35;9.40;99.90
22526;DHT22;11429;50.842;4.386;2023-12-14T12:02:01;9.30;99.90
22526;DHT22;11429;50.842;4.386;2023-12-14T12:04:28;9.20;99.90
22526;DHT22;11429;50.842;4.386;2023-12-14T12:07:04;9.20;99.90
22526;DHT22;11429;50.842;4.386;2023-12-14T12:12:05;9.10;99.90
22526;DHT22;11429;50.842;4.386;2023-12-14T12:14:31;9.30;99.90
22526;DHT22;11429;50.842;4.386;2023-12-14T12:16:57;9.30;99.90
22526;DHT22;11429;50.842;4.386;2023-12-14T12:19:22;9.30;99.90
22526;DHT22;11429;50.842;4.386;2023-12-14T12:21:49;9.20;99.90
22526;DHT22;11429;50.842;4.386;2023-12-14T12:24:14;9.10;99.90
22526;DHT22;11429;50.842;4.386;2023-12-14T12:26:40;9.20;99.90
22526;DHT22;11429;50.842;4.386;2023-12-14T12:29:06;9.20;99.90
22526;DHT22;11429;50.842;4.386;2023-12-14T12:31:32;9.30;99.90
22526;DHT22;11429;50.842;4.386;2023-12-14T12:33:58;9.30;99.90
22526;DHT22;11429;50.842;4.386;2023-12-14T12:36:24;9.50;99.90
22526;DHT22;11429;50.842;4.386;2023-12-14T12:38:50;9.50;99.90
22526;DHT22;11429;50.842;4.386;2023-12-14T12:41:16;9.50;99.90
22526;DHT22;11429;50.842;4.386;2023-12-14T12:43:43;9.40;99.90
22526;DHT22;11429;50.842;4.386;2023-12-14T12:46:09;9.20;99.90
22526;DHT22;11429;50.842;4.386;2023-12-14T12:48:35;9.10;99.90
22526;DHT22;11429;50.842;4.386;2023-12-14T12:51:01;9.10;99.90
22526;DHT22;11429;50.842;4.386;2023-12-14T12:53:27;8.90;99.90
22526;DHT22;11429;50.842;4.386;2023-12-14T12:55:52;9.00;99.90
22526;DHT22;11429;50.842;4.386;2023-12-14T12:58:18;9.10;99.90
22526;DHT22;11429;50.842;4.386;2023-12-14T13:00:44;9.00;99.90
22526;DHT22;11429;50.842;4.386;2023-12-14T13:03:09;9.40;99.90
22526;DHT22;11429;50.842;4.386;2023-12-14T13:05:36;9.60;99.90
22526;DHT22;11429;50.842;4.386;2023-12-14T13:08:01;9.60;99.90
22526;DHT22;11429;50.842;4.386;2023-12-14T13:10:27;9.60;99.90
22526;DHT22;11429;50.842;4.386;2023-12-14T13:12:53;9.50;99.90
22526;DHT22;11429;50.842;4.386;2023-12-14T13:15:19;9.40;99.90
22526;DHT22;11429;50.842;4.386;2023-12-14T13:17:45;9.30;99.90
22526;DHT22;11429;50.842;4.386;2023-12-14T13:20:10;9.30;99.90
22526;DHT22;11429;50.842;4.386;2023-12-14T13:22:36;9.40;99.90
22526;DHT22;11429;50.842;4.386;2023-12-14T13:25:02;9.30;99.90
22526;DHT22;11429;50.842;4.386;2023-12-14T13:27:28;9.50;99.90
22526;DHT22;11429;50.842;4.386;2023-12-14T13:29:55;9.50;99.90
22526;DHT22;11429;50.842;4.386;2023-12-14T13:32:20;9.40;99.90
22526;DHT22;11429;50.842;4.386;2023-12-14T13:34:46;9.60;99.90
22526;DHT22;11429;50.842;4.386;2023-12-14T13:37:12;9.70;99.90
22526;DHT22;11429;50.842;4.386;2023-12-14T13:39:38;10.20;99.90
22526;DHT22;11429;50.842;4.386;2023-12-14T13:42:07;9.70;99.90
22526;DHT22;11429;50.842;4.386;2023-12-14T13:44:33;9.40;99.90
22526;DHT22;11429;50.842;4.386;2023-12-14T13:47:01;9.30;99.90
22526;DHT22;11429;50.842;4.386;2023-12-14T13:49:27;9.40;99.90
22526;DHT22;11429;50.842;4.386;2023-12-14T13:51:53;9.50;99.90
22526;DHT22;11429;50.842;4.386;2023-12-14T13:54:18;9.70;99.90
22526;DHT22;11429;50.842;4.386;2023-12-14T13:56:44;9.60;99.90
22526;DHT22;11429;50.842;4.386;2023-12-14T13:59:10;9.50;99.90
22526;DHT22;11429;50.842;4.386;2023-12-14T14:01:36;9.60;99.90
22526;DHT22;11429;50.842;4.386;2023-12-14T14:04:02;9.50;99.90
22526;DHT22;11429;50.842;4.386;2023-12-14T14:06:27;9.50;99.90
22526;DHT22;11429;50.842;4.386;2023-12-14T14:08:56;9.40;99.90
22526;DHT22;11429;50.842;4.386;2023-12-14T14:11:22;9.30;99.90
22526;DHT22;11429;50.842;4.386;2023-12-14T14:13:48;9.10;99.90
22526;DHT22;11429;50.842;4.386;2023-12-14T14:16:14;9.00;99.90
22526;DHT22;11429;50.842;4.386;2023-12-14T14:18:39;9.20;99.90
22526;DHT22;11429;50.842;4.386;2023-12-14T14:21:05;9.30;99.90
22526;DHT22;11429;50.842;4.386;2023-12-14T14:23:34;9.40;99.90
22526;DHT22;11429;50.842;4.386;2023-12-14T14:26:00;9.30;99.90
22526;DHT22;11429;50.842;4.386;2023-12-14T14:28:25;9.10;99.90
22526;DHT22;11429;50.842;4.386;2023-12-14T14:30:52;9.30;99.90
22526;DHT22;11429;50.842;4.386;2023-12-14T14:33:17;9.30;99.90
22526;DHT22;11429;50.842;4.386;2023-12-14T14:35:47;9.70;99.90
22526;DHT22;11429;50.842;4.386;2023-12-14T14:38:16;9.50;99.90
22526;DHT22;11429;50.842;4.386;2023-12-14T14:40:44;9.40;99.90
22526;DHT22;11429;50.842;4.386;2023-12-14T14:43:11;9.30;99.90
22526;DHT22;11429;50.842;4.386;2023-12-14T14:45:37;9.30;99.90
22526;DHT22;11429;50.842;4.386;2023-12-14T14:48:04;9.50;99.90
22526;DHT22;11429;50.842;4.386;2023-12-14T14:50:34;9.50;99.90
22526;DHT22;11429;50.842;4.386;2023-12-14T14:53:00;9.40;99.90
22526;DHT22;11429;50.842;4.386;2023-12-14T14:55:26;9.40;99.90
22526;DHT22;11429;50.842;4.386;2023-12-14T14:57:52;9.50;99.90
22526;DHT22;11429;50.842;4.386;2023-12-14T15:00:18;9.50;99.90
22526;DHT22;11429;50.842;4.386;2023-12-14T15:02:44;9.30;99.90
22526;DHT22;11429;50.842;4.386;2023-12-14T15:05:09;9.30;99.90
22526;DHT22;11429;50.842;4.386;2023-12-14T15:07:36;9.40;99.90
22526;DHT22;11429;50.842;4.386;2023-12-14T15:10:02;9.40;99.90
22526;DHT22;11429;50.842;4.386;2023-12-14T15:12:28;9.50;99.90
22526;DHT22;11429;50.842;4.386;2023-12-14T15:14:54;9.40;99.90
22526;DHT22;11429;50.842;4.386;2023-12-14T15:17:21;9.20;99.90
22526;DHT22;11429;50.842;4.386;2023-12-14T15:19:48;9.10;99.90
22526;DHT22;11429;50.842;4.386;2023-12-14T15:22:15;9.20;99.90
22526;DHT22;11429;50.842;4.386;2023-12-14T15:24:41;9.30;99.90
22526;DHT22;11429;50.842;4.386;2023-12-14T15:27:07;9.20;99.90
22526;DHT22;11429;50.842;4.386;2023-12-14T15:29:33;9.20;99.90
22526;DHT22;11429;50.842;4.386;2023-12-14T15:31:58;9.10;99.90
22526;DHT22;11429;50.842;4.386;2023-12-14T15:34:24;9.00;99.90
22526;DHT22;11429;50.842;4.386;2023-12-14T15:36:50;9.10;99.90
22526;DHT22;11429;50.842;4.386;2023-12-14T15:39:15;9.00;99.90
22526;DHT22;11429;50.842;4.386;2023-12-14T15:41:41;9.00;99.90
22526;DHT22;11429;50.842;4.386;2023-12-14T15:44:07;9.00;99.90
22526;DHT22;11429;50.842;4.386;2023-12-14T15:46:32;9.00;99.90
22526;DHT22;11429;50.842;4.386;2023-12-14T15:48:58;9.10;99.90
22526;DHT22;11429;50.842;4.386;2023-12-14T15:51:24;9.10;99.90
22526;DHT22;11429;50.842;4.386;2023-12-14T15:53:50;9.10;99.90
22526;DHT22;11429;50.842;4.386;2023-12-14T15:56:16;9.20;99.90
22526;DHT22;11429;50.842;4.386;2023-12-14T15:58:42;9.10;99.90
22526;DHT22;11429;50.842;4.386;2023-12-14T16:01:08;9.10;99.90
22526;DHT22;11429;50.842;4.386;2023-12-14T16:03:33;9.00;99.90
22526;DHT22;11429;50.842;4.386;2023-12-14T16:06:00;9.20;99.90
22526;DHT22;11429;50.842;4.386;2023-12-14T16:08:25;9.10;99.90
22526;DHT22;11429;50.842;4.386;2023-12-14T16:10:51;9.10;99.90
22526;DHT22;11429;50.842;4.386;2023-12-14T16:13:19;9.20;99.90
22526;DHT22;11429;50.842;4.386;2023-12-14T16:15:45;9.00;99.90
22526;DHT22;11429;50.842;4.386;2023-12-14T16:18:10;9.00;99.90